• Join FlightAware (Why Join?)
  • Login
  • US Flag 
04:02AM EDT


 

Airport Tracker/Info


-or-


 

Live Flight TrackerFlight Track Log ✈ DLH417 ✈ 09-Jun-2013 ✈ KIAD - EDDF / FRA

Flight Track Log - Related Links

Times and Time Zones

All times are in EDT time to prevent confusion due to time zone crossing. See the DLH417 flight status page for this flight to view local times or setup timezone preferences in your user account.

Time Position Orientation Groundspeed Altitude Reporting Facility
EDT Latitude Longitude Course Direction KTS MPH feet Rate Location/Type
03:33PM 38.9420 -77.5480 261° West 199 229 1,800  Level FlightAware
03:34PM 38.9370 -77.5940 262° West 238 274 2,400 1,320 Climbing FlightAware
03:34PM 38.9350 -77.6130 262° West 246 283 2,900 2,100 Climbing FlightAware
03:35PM 38.9300 -77.6580 262° West 253 291 4,000 1,740 Climbing FlightAware
03:35PM 38.9260 -77.6960 262° West 261 300 4,500 600 Climbing FlightAware
03:36PM 38.9370 -77.7710 281° West 285 328 4,800 300 Climbing FlightAware
03:36PM 38.9490 -77.7800 330° Northwest 286 329 4,800  Level FlightAware
03:36PM 38.9690 -77.7850 349° North 285 328 4,800  Level FlightAware
03:37PM 39.0080 -77.7860 359° North 286 329 4,800  Level FlightAware
03:37PM 39.0400 -77.7860 360° North 285 328 4,800 480 Level FlightAware
03:38PM 39.0740 -77.7820 North 286 329 5,200 1,500 Climbing FlightAware
03:38PM 39.1080 -77.7670 19° North 293 337 6,200 2,160 Climbing FlightAware
03:39PM 39.1420 -77.7500 21° North 297 342 7,200 1,920 Climbing FlightAware
03:39PM 39.1630 -77.7020 61° Northeast 308 354 8,000 1,320 Climbing FlightAware
03:39PM 39.1680 -77.6760 76° East 313 360 8,200 1,020 Climbing FlightAware
03:40PM 39.1780 -77.6330 73° East 310 357 8,700 600 Climbing FlightAware
03:40PM 39.1930 -77.5780 71° East 312 359 8,800 60 Climbing FlightAware
03:41PM 39.2040 -77.5350 72° East 311 358 8,800  Level FlightAware
03:41PM 39.2140 -77.5010 69° East 314 361 8,800  Level FlightAware
03:42PM 39.2320 -77.4340 71° East 314 361 8,800  Level FlightAware
03:42PM 39.2390 -77.4080 71° East 315 362 8,800  Level FlightAware
03:42PM 39.2490 -77.3690 72° East 315 362 8,800 180 Level FlightAware
03:43PM 39.2650 -77.3110 70° East 314 361 9,000 1,320 Climbing FlightAware
03:43PM 39.2850 -77.2350 71° East 318 366 10,400 1,740 Climbing FlightAware
03:44PM 39.3160 -77.1210 71° East 361 415 11,900 1,560 Climbing FlightAware
03:45PM 39.3330 -77.0450 74° East 371 427 13,000 1,740 Climbing FlightAware
03:46PM 39.3180 -76.9680 104° East 381 438 14,000 1,740 Climbing FlightAware
03:46PM 39.2910 -76.8770 111° Southeast 396 456 15,100 1,680 Climbing FlightAware
03:47PM 39.2650 -76.7910 111° Southeast 401 461 16,300 1,800 Climbing FlightAware
03:48PM 39.2370 -76.7000 112° Southeast 405 466 17,500 1,800 Climbing FlightAware
03:48PM 39.2060 -76.5990 112° Southeast 410 472 18,800 1,620 Climbing FlightAware
03:49PM 39.1740 -76.4930 111° Southeast 418 481 20,000 1,440 Climbing FlightAware
03:50PM 39.1470 -76.4030 111° Southeast 424 488 20,900 1,320 Climbing FlightAware
03:51PM 39.1130 -76.2940 112° Southeast 433 498 21,900 1,200 Climbing FlightAware
03:51PM 39.0840 -76.2010 112° Southeast 443 510 22,600 1,080 Climbing FlightAware
03:52PM 39.0520 -76.0920 111° Southeast 454 522 23,400 1,020 Climbing FlightAware
03:53PM 39.0480 -75.9870 93° East 472 543 24,000 960 Climbing FlightAware
03:53PM 39.0530 -75.8580 87° East 473 544 24,800 660 Climbing FlightAware
03:54PM 39.0590 -75.7340 86° East 481 554 25,000 120 Climbing FlightAware
03:55PM 39.0640 -75.6210 87° East 477 549 25,000  Level FlightAware
03:55PM 39.0680 -75.5070 87° East 478 550 25,000  Level FlightAware
03:56PM 39.0840 -75.4250 76° East 476 548 25,000  Level FlightAware
03:57PM 39.1360 -75.3350 53° Northeast 477 549 25,000  Level FlightAware
03:57PM 39.1940 -75.2380 52° Northeast 477 549 25,000  Level FlightAware
03:58PM 39.2470 -75.1480 53° Northeast 460 529 25,000 120 Level FlightAware
03:59PM 39.3020 -75.0540 53° Northeast 461 531 25,200 600 Climbing FlightAware
03:59PM 39.3610 -74.9540 53° Northeast 468 539 25,900 840 Climbing FlightAware
04:01PM 39.4670 -74.7710 53° Northeast 488 562 26,900 720 Climbing FlightAware
04:01PM 39.5270 -74.6680 53° Northeast 496 571 27,500 900 Climbing FlightAware
04:02PM 39.5890 -74.5610 53° Northeast 496 571 28,300 1,320 Climbing FlightAware
04:03PM 39.6490 -74.4560 53° Northeast 491 565 29,400 1,080 Climbing FlightAware
04:04PM 39.7040 -74.3600 53° Northeast 497 572 29,800 600 Climbing FlightAware
04:04PM 39.7600 -74.2640 53° Northeast 501 577 30,300 780 Climbing FlightAware
04:05PM 39.8410 -74.1210 54° Northeast 513 590 31,100 720 Climbing FlightAware
04:06PM 39.9140 -73.9930 53° Northeast 520 598 31,600 780 Climbing FlightAware
04:07PM 39.9840 -73.8690 54° Northeast 525 604 32,400 720 Climbing FlightAware
04:08PM 40.0430 -73.7640 54° Northeast 533 613 32,700 720 Climbing FlightAware
04:08PM 40.1090 -73.6470 54° Northeast 531 611 33,500 960 Climbing FlightAware
04:09PM 40.1620 -73.5430 56° Northeast 534 615 34,100 840 Climbing FlightAware
04:09PM 40.1910 -73.4510 68° East 536 617 34,500 720 Climbing FlightAware
04:10PM 40.2260 -73.3250 70° East 542 624 35,000 480 Climbing FlightAware
04:11PM 40.2490 -73.2370 71° East 543 625 35,300 900 Climbing FlightAware
04:12PM 40.3050 -73.0100 72° East 546 628 36,500 1,200 Climbing FlightAware
04:12PM 40.3350 -72.8910 72° East 546 628 37,000 360 Climbing FlightAware
04:13PM 40.3680 -72.7620 71° East 548 631 37,000  Level FlightAware
04:14PM 40.4010 -72.6270 72° East 545 627 37,000  Level FlightAware
04:15PM 40.4330 -72.4970 72° East 545 627 37,000  Level FlightAware
04:15PM 40.4650 -72.3670 72° East 544 626 37,000  Level FlightAware
04:16PM 40.4890 -72.2670 72° East 545 627 37,000  Level FlightAware
04:17PM 40.5320 -72.0910 72° East 545 627 37,000  Level FlightAware
04:17PM 40.5620 -71.9650 73° East 545 627 37,000  Level FlightAware
04:18PM 40.5950 -71.8270 72° East 544 626 37,000  Level FlightAware
04:19PM 40.6250 -71.7000 73° East 543 625 37,000  Level FlightAware
04:19PM 40.6540 -71.5790 72° East 544 626 37,000  Level FlightAware
04:20PM 40.7000 -71.4450 66° East 541 623 37,000  Level FlightAware
04:21PM 40.7770 -71.2800 58° Northeast 541 623 37,000  Level FlightAware
04:22PM 40.8410 -71.1420 58° Northeast 538 619 37,000  Level FlightAware
04:23PM 40.9000 -71.0130 59° Northeast 539 620 37,000  Level FlightAware
04:24PM 40.9610 -70.8790 59° Northeast 538 619 37,000  Level FlightAware
04:25PM 41.0400 -70.7060 59° Northeast 538 619 37,000  Level FlightAware
04:26PM 41.1340 -70.4990 59° Northeast 541 623 37,000  Level FlightAware
04:27PM 41.1900 -70.3740 59° Northeast 541 623 37,000  Level FlightAware
04:27PM 41.2550 -70.2290 59° Northeast 541 623 37,000  Level FlightAware
04:29PM 41.3440 -70.0300 59° Northeast 540 621 37,000  Level FlightAware
04:29PM 41.3840 -69.9430 58° Northeast 540 621 37,000  Level FlightAware
04:30PM 41.4570 -69.7750 60° Northeast 541 623 37,000  Level FlightAware
04:31PM 41.5020 -69.6740 59° Northeast 541 623 37,000  Level FlightAware
04:31PM 41.5670 -69.5280 59° Northeast 543 625 37,000  Level FlightAware
04:32PM 41.6410 -69.3600 59° Northeast 543 625 37,000  Level FlightAware
04:33PM 41.7070 -69.2080 60° Northeast 545 627 37,000  Level FlightAware
04:34PM 41.7910 -69.0160 60° Northeast 547 629 37,000  Level FlightAware
04:35PM 41.8430 -68.8940 60° Northeast 547 629 37,000  Level FlightAware
04:36PM 41.9010 -68.7590 60° Northeast 547 629 37,000  Level FlightAware
04:36PM 41.9520 -68.6400 60° Northeast 548 631 37,000  Level FlightAware
04:38PM 42.0500 -68.4090 60° Northeast 549 632 37,000  Level FlightAware
04:39PM 42.1230 -68.2350 60° Northeast 551 634 37,000  Level FlightAware
04:40PM 42.1810 -68.0980 60° Northeast 553 636 37,000  Level FlightAware
04:40PM 42.2220 -68.0030 60° Northeast 553 636 37,000  Level FlightAware
04:41PM 42.2750 -67.8790 60° Northeast 553 636 37,000  Level FlightAware
04:42PM 42.3140 -67.7870 60° Northeast 553 636 37,000  Level FlightAware
04:43PM 42.3780 -67.6370 60° Northeast 553 636 37,000  Level FlightAware
04:43PM 42.4180 -67.5420 60° Northeast 553 636 37,000  Level FlightAware
04:44PM 42.4720 -67.4170 60° Northeast 553 636 37,000  Level FlightAware
04:45PM 42.5120 -67.3230 60° Northeast 553 636 37,000  Level FlightAware
04:45PM 42.5650 -67.1970 60° Northeast 553 636 37,000  Level FlightAware
04:46PM 42.6050 -67.1030 60° Northeast 553 636 37,000  Level FlightAware
04:47PM 42.6580 -66.9800 60° Northeast 553 636 37,000  Level FlightAware
04:47PM 42.6980 -66.8850 60° Northeast 553 636 37,000  Level FlightAware
04:48PM 42.7400 -66.7850 60° Northeast 553 636 37,000  Level FlightAware
04:49PM 42.8100 -66.3620 77° East 561 646 37,000  Level FlightAware
04:50PM 42.8510 -66.2120 70° East 561 646 37,000  Level FlightAware
04:50PM 42.8910 -66.0640 70° East 561 646 37,000  Level FlightAware
04:51PM 42.9270 -65.9290 70° East 563 648 37,000  Level FlightAware
04:52PM 42.9620 -65.7980 70° East 564 649 37,000  Level FlightAware
04:52PM 43.0020 -65.6490 70° East 563 648 37,000  Level FlightAware
04:53PM 43.0380 -65.5140 70° East 564 649 37,000  Level FlightAware
04:54PM 43.0730 -65.3820 70° East 566 651 37,000  Level FlightAware
04:54PM 43.1120 -65.2330 70° East 563 648 37,000  Level FlightAware
04:55PM 43.1510 -65.0810 71° East 565 650 37,000  Level FlightAware
04:56PM 43.1870 -64.9440 70° East 565 650 37,000  Level FlightAware
04:57PM 43.2220 -64.8070 71° East 565 650 37,000  Level FlightAware
04:57PM 43.2610 -64.6540 71° East 565 650 37,000  Level FlightAware
04:58PM 43.2960 -64.5180 70° East 565 650 37,000  Level FlightAware
04:59PM 43.3430 -64.3300 71° East 565 650 37,000  Level FlightAware
05:00PM 43.3690 -64.2260 71° East 565 650 37,000  Level FlightAware
05:00PM 43.4030 -64.0900 71° East 565 650 37,000  Level FlightAware
05:01PM 43.4300 -63.9830 71° East 565 650 37,000  Level FlightAware
05:02PM 43.4640 -63.8440 71° East 565 650 37,000  Level FlightAware
05:02PM 43.4920 -63.7340 71° East 565 650 37,000  Level FlightAware
05:03PM 43.5180 -63.6300 71° East 565 650 37,000  Level FlightAware
05:04PM 43.5520 -63.4940 71° East 565 650 37,000  Level FlightAware
05:05PM 43.5870 -63.3540 71° East 565 650 37,000  Level FlightAware
05:05PM 43.6120 -63.2530 71° East 565 650 37,000  Level FlightAware
05:06PM 43.6470 -63.1110 71° East 565 650 37,000  Level FlightAware
05:07PM 43.6750 -63.0000 71° East 565 650 37,000  Level FlightAware
05:07PM 43.7080 -62.8670 71° East 565 650 37,000  Level FlightAware
05:08PM 43.7350 -62.7590 71° East 565 650 37,000  Level FlightAware
05:09PM 43.8580 -62.1830 73° East 567 652 37,000  Level FlightAware
05:11PM 43.8990 -61.9940 73° East 566 651 37,000  Level FlightAware
05:12PM 43.9310 -61.8490 73° East 566 651 37,000  Level FlightAware
05:12PM 43.9550 -61.7390 73° East 566 651 37,000  Level FlightAware
05:13PM 43.9870 -61.5980 72° East 566 651 37,000  Level FlightAware
05:14PM 44.0100 -61.4910 73° East 566 651 37,000  Level FlightAware
05:15PM 44.0400 -61.3550 73° East 566 651 37,000  Level FlightAware
05:15PM 44.0640 -61.2450 73° East 566 651 37,000  Level FlightAware
05:16PM 44.0890 -61.1330 73° East 566 651 37,000  Level FlightAware
05:17PM 44.1210 -60.9870 73° East 566 651 37,000  Level FlightAware
05:17PM 44.1500 -60.8510 73° East 566 651 37,000  Level FlightAware
05:18PM 44.1740 -60.7410 73° East 566 651 37,000  Level FlightAware
05:19PM 44.2890 -60.2060 73° East 566 651 37,000  Level FlightAware
05:19PM 44.3150 -60.0800 74° East 564 649 37,000  Level FlightAware
05:20PM 44.3440 -59.9380 74° East 563 648 37,000  Level FlightAware
05:21PM 44.3790 -59.7670 74° East 563 648 37,000  Level FlightAware
05:22PM 44.4080 -59.6240 74° East 563 648 37,000  Level FlightAware
05:22PM 44.4380 -59.4740 74° East 562 647 37,000  Level FlightAware
05:23PM 44.4660 -59.3340 74° East 561 646 37,000  Level FlightAware
05:24PM 44.4970 -59.1800 74° East 561 646 37,000  Level FlightAware
05:24PM 44.5260 -59.0310 75° East 562 647 37,000  Level FlightAware
05:25PM 44.5540 -58.8880 75° East 560 644 37,000  Level FlightAware
05:26PM 44.5820 -58.7460 74° East 559 643 37,000  Level FlightAware
05:26PM 44.6090 -58.6020 75° East 558 642 37,000  Level FlightAware
05:27PM 44.6370 -58.4560 75° East 556 640 37,000  Level FlightAware
05:28PM 44.6670 -58.3010 75° East 556 640 37,000  Level FlightAware
05:28PM 44.6890 -58.1830 75° East 555 639 37,000  Level FlightAware
05:29PM 44.7210 -58.0110 75° East 553 636 37,000  Level FlightAware
05:30PM 44.7500 -57.8560 75° East 553 636 37,000  Level FlightAware
05:31PM 44.7750 -57.7180 76° East 554 638 37,000  Level FlightAware
05:31PM 44.8030 -57.5660 75° East 555 639 37,000  Level FlightAware
05:32PM 44.8290 -57.4210 76° East 554 638 37,000  Level FlightAware
05:33PM 44.8560 -57.2690 76° East 554 638 37,000  Level FlightAware
05:33PM 44.8790 -57.1420 76° East 554 638 37,000  Level FlightAware
05:34PM 44.9090 -56.9670 76° East 554 638 37,000  Level FlightAware
05:35PM 44.9350 -56.8210 76° East 554 638 37,000  Level FlightAware
05:36PM 44.9550 -56.7080 76° East 554 638 37,000  Level FlightAware
05:37PM 44.9800 -56.5700 76° East 554 638 37,000  Level FlightAware
05:37PM 44.9980 -56.4620 77° East 554 638 37,000  Level FlightAware
05:38PM 45.0250 -56.3130 76° East 554 638 37,000  Level FlightAware
05:39PM 45.0440 -56.2020 76° East 554 638 37,000  Level FlightAware
05:39PM 45.0630 -56.0950 76° East 554 638 37,000  Level FlightAware
05:40PM 45.0880 -55.9510 76° East 554 638 37,000  Level FlightAware
05:41PM 45.1090 -55.8340 76° East 554 638 37,000  Level FlightAware
05:41PM 45.1350 -55.6870 76° East 554 638 37,000  Level FlightAware
05:42PM 45.1540 -55.5790 76° East 554 638 37,000  Level FlightAware
05:43PM 45.1790 -55.4350 76° East 554 638 37,000  Level FlightAware
05:43PM 45.1980 -55.3270 76° East 554 638 37,000 540 Level FlightAware
05:46PM 45.3560 -54.4090 76° East 565 650 39,000 540 Climbing FlightAware
05:47PM 45.3830 -54.2480 77° East 566 651 39,000  Level FlightAware
05:48PM 45.4020 -54.1270 77° East 565 650 39,000  Level FlightAware
05:48PM 45.4240 -54.0010 76° East 565 650 39,000  Level FlightAware
05:49PM 45.4500 -53.8540 76° East 565 650 39,000  Level FlightAware
05:50PM 45.4700 -53.7430 76° East 565 650 39,000  Level FlightAware
05:51PM 45.5060 -53.4840 79° East 572 658 39,000  Level FlightAware
05:51PM 45.5290 -53.3440 77° East 571 657 39,000  Level FlightAware
05:52PM 45.5470 -53.2310 77° East 571 657 39,000  Level FlightAware
05:53PM 45.5720 -53.0780 77° East 571 657 39,000  Level FlightAware
05:53PM 45.5900 -52.9660 77° East 571 657 39,000  Level FlightAware
05:54PM 45.6140 -52.8160 77° East 571 657 39,000  Level FlightAware
05:55PM 45.6330 -52.7000 77° East 571 657 39,000  Level FlightAware
05:55PM 45.6570 -52.5500 77° East 571 657 39,000  Level FlightAware
05:56PM 45.6740 -52.4430 77° East 571 657 39,000  Level FlightAware
05:57PM 45.6980 -52.2930 77° East 571 657 39,000  Level FlightAware
05:57PM 45.7170 -52.1800 76° East 571 657 39,000  Level FlightAware
05:58PM 45.7420 -52.0230 77° East 571 657 39,000  Level FlightAware
05:59PM 45.7600 -51.9070 77° East 571 657 39,000  Level FlightAware
06:00PM 45.7850 -51.7570 77° East 571 657 39,000  Level FlightAware
06:00PM 45.8030 -51.6410 77° East 571 657 39,000  Level FlightAware
06:01PM 45.8490 -51.1520 82° East 576 663 39,000  Level FlightAware
06:02PM 45.8680 -51.0150 79° East 577 664 39,000  Level FlightAware
06:02PM 45.8850 -50.8870 79° East 577 664 39,000  Level FlightAware
06:03PM 45.9060 -50.7340 79° East 577 664 39,000  Level FlightAware
06:04PM 45.9220 -50.6150 79° East 577 664 39,000  Level FlightAware
06:05PM 45.9410 -50.4710 79° East 577 664 39,000  Level FlightAware
06:05PM 45.9570 -50.3560 79° East 577 664 39,000  Level FlightAware
06:06PM 45.9770 -50.2080 79° East 577 664 39,000  Level FlightAware
06:07PM 45.9970 -50.0540 79° East 577 664 39,000  Level FlightAware
06:07PM 46.0130 -49.9360 79° East 577 664 39,000  Level FlightAware
06:08PM 46.0290 -49.8200 79° East 577 664 39,000  Level FlightAware
06:09PM 46.0500 -49.6660 79° East 577 664 39,000  Level FlightAware
06:09PM 46.0650 -49.5510 79° East 577 664 39,000  Level FlightAware
06:10PM 46.0860 -49.3970 79° East 577 664 39,000  Level FlightAware
06:11PM 46.1080 -49.2360 79° East 577 664 39,000  Level FlightAware
06:11PM 46.1333 -48.8000 79° East 570 656 39,000  Level Gander Center
06:12PM 46.1833 -48.5667 73° East 570 656 39,000  Level Gander Center
06:13PM 46.2000 -48.3500 84° East 570 656 39,000  Level Gander Center
06:14PM 46.2333 -48.1500 76° East 570 656 39,000  Level Gander Center
06:15PM 46.2667 -47.8833 80° East 580 667 39,000  Level Gander Center
06:16PM 46.2833 -47.6833 83° East 570 656 39,000  Level Gander Center
06:17PM 46.3000 -47.4333 84° East 570 656 39,000  Level Gander Center
06:18PM 46.3500 -47.2333 70° East 560 644 39,000  Level Gander Center
06:19PM 46.3667 -47.0000 84° East 560 644 39,000  Level Gander Center
06:20PM 46.4000 -46.8000 76° East 560 644 39,000  Level Gander Center
06:22PM 46.4313 -46.5600 79° East  Level FlightAware Approximate
06:29PM 46.5870 -45.1506 81° East  Level FlightAware Approximate
06:30PM 46.6072 -44.9485 82° East  Level FlightAware Approximate
06:31PM 46.6271 -44.7463 82° East  Level FlightAware Approximate
06:32PM 46.6466 -44.5438 82° East  Level FlightAware Approximate
06:33PM 46.6658 -44.3413 82° East  Level FlightAware Approximate
06:34PM 46.6846 -44.1386 82° East  Level FlightAware Approximate
06:35PM 46.7030 -43.9357 82° East  Level FlightAware Approximate
06:36PM 46.7213 -43.7328 82° East  Level FlightAware Approximate
06:37PM 46.7397 -43.5298 82° East  Level FlightAware Approximate
06:38PM 46.7577 -43.3267 83° East  Level FlightAware Approximate
06:39PM 46.7753 -43.1234 83° East  Level FlightAware Approximate
06:40PM 46.7926 -42.9200 83° East  Level FlightAware Approximate
06:41PM 46.8095 -42.7165 83° East  Level FlightAware Approximate
06:42PM 46.8261 -42.5129 83° East  Level FlightAware Approximate
06:43PM 46.8423 -42.3091 83° East  Level FlightAware Approximate
06:44PM 46.8581 -42.1052 83° East  Level FlightAware Approximate
06:45PM 46.8736 -41.9011 84° East  Level FlightAware Approximate
06:46PM 46.8887 -41.6970 84° East  Level FlightAware Approximate
06:47PM 46.9034 -41.4928 84° East  Level FlightAware Approximate
06:48PM 46.9178 -41.2884 84° East  Level FlightAware Approximate
06:49PM 46.9319 -41.0839 84° East  Level FlightAware Approximate
06:50PM 46.9455 -40.8794 84° East  Level FlightAware Approximate
06:51PM 46.9588 -40.6747 84° East  Level FlightAware Approximate
06:52PM 46.9717 -40.4699 85° East  Level FlightAware Approximate
06:53PM 46.9843 -40.2651 85° East  Level FlightAware Approximate
06:54PM 46.9965 -40.0601 85° East  Level FlightAware Approximate
06:55PM 47.0204 -39.8576 78° East  Level FlightAware Approximate
06:56PM 47.0490 -39.6560 78° East  Level FlightAware Approximate
06:57PM 47.0772 -39.4542 78° East  Level FlightAware Approximate
06:58PM 47.1050 -39.2522 78° East  Level FlightAware Approximate
06:59PM 47.1325 -39.0499 79° East  Level FlightAware Approximate
07:00PM 47.1597 -38.8475 79° East  Level FlightAware Approximate
07:01PM 47.1864 -38.6448 79° East  Level FlightAware Approximate
07:02PM 47.2129 -38.4419 79° East  Level FlightAware Approximate
07:03PM 47.2389 -38.2389 79° East  Level FlightAware Approximate
07:04PM 47.2646 -38.0356 79° East  Level FlightAware Approximate
07:05PM 47.2900 -37.8322 80° East  Level FlightAware Approximate
07:06PM 47.3150 -37.6285 80° East  Level FlightAware Approximate
07:07PM 47.3396 -37.4247 80° East  Level FlightAware Approximate
07:08PM 47.3639 -37.2206 80° East  Level FlightAware Approximate
07:09PM 47.3878 -37.0164 80° East  Level FlightAware Approximate
07:10PM 47.4113 -36.8120 80° East  Level FlightAware Approximate
07:11PM 47.4345 -36.6074 80° East  Level FlightAware Approximate
07:12PM 47.4573 -36.4027 81° East  Level FlightAware Approximate
07:13PM 47.4797 -36.1977 81° East  Level FlightAware Approximate
07:14PM 47.5018 -35.9926 81° East  Level FlightAware Approximate
07:15PM 47.5235 -35.7873 81° East  Level FlightAware Approximate
07:16PM 47.5449 -35.5819 81° East  Level FlightAware Approximate
07:17PM 47.5659 -35.3763 81° East  Level FlightAware Approximate
07:18PM 47.5865 -35.1705 81° East  Level FlightAware Approximate
07:19PM 47.6070 -34.9646 81° East  Level FlightAware Approximate
07:20PM 47.6277 -34.7587 81° East  Level FlightAware Approximate
07:21PM 47.6480 -34.5526 82° East  Level FlightAware Approximate
07:22PM 47.6680 -34.3464 82° East  Level FlightAware Approximate
07:23PM 47.6876 -34.1399 82° East  Level FlightAware Approximate
07:24PM 47.7068 -33.9334 82° East  Level FlightAware Approximate
07:25PM 47.7256 -33.7267 82° East  Level FlightAware Approximate
07:26PM 47.7441 -33.5198 82° East  Level FlightAware Approximate
07:27PM 47.7622 -33.3128 83° East  Level FlightAware Approximate
07:28PM 47.7800 -33.1057 83° East  Level FlightAware Approximate
07:29PM 47.7973 -32.8984 83° East  Level FlightAware Approximate
07:30PM 47.8143 -32.6910 83° East  Level FlightAware Approximate
07:31PM 47.8309 -32.4835 83° East  Level FlightAware Approximate
07:32PM 47.8472 -32.2758 83° East  Level FlightAware Approximate
07:33PM 47.8630 -32.0680 83° East  Level FlightAware Approximate
07:34PM 47.8785 -31.8600 84° East  Level FlightAware Approximate
07:35PM 47.8936 -31.6520 84° East  Level FlightAware Approximate
07:36PM 47.9084 -31.4438 84° East  Level FlightAware Approximate
07:37PM 47.9227 -31.2355 84° East  Level FlightAware Approximate
07:38PM 47.9367 -31.0271 84° East  Level FlightAware Approximate
07:39PM 47.9503 -30.8186 84° East  Level FlightAware Approximate
07:40PM 47.9635 -30.6099 85° East  Level FlightAware Approximate
07:41PM 47.9764 -30.4012 85° East  Level FlightAware Approximate
07:42PM 47.9889 -30.1923 85° East  Level FlightAware Approximate
07:43PM 48.0024 -29.9837 78° East  Level FlightAware Approximate
07:44PM 48.0321 -29.7786 78° East  Level FlightAware Approximate
07:45PM 48.0614 -29.5733 78° East  Level FlightAware Approximate
07:46PM 48.0904 -29.3678 78° East  Level FlightAware Approximate
07:47PM 48.1190 -29.1621 78° East  Level FlightAware Approximate
07:48PM 48.1473 -28.9561 78° East  Level FlightAware Approximate
07:49PM 48.1751 -28.7499 78° East  Level FlightAware Approximate
07:50PM 48.2026 -28.5434 79° East  Level FlightAware Approximate
07:51PM 48.2298 -28.3368 79° East  Level FlightAware Approximate
07:52PM 48.2565 -28.1299 79° East  Level FlightAware Approximate
07:53PM 48.2829 -27.9228 79° East  Level FlightAware Approximate
07:54PM 48.3089 -27.7155 79° East  Level FlightAware Approximate
07:55PM 48.3346 -27.5080 79° East  Level FlightAware Approximate
07:56PM 48.3599 -27.3003 80° East  Level FlightAware Approximate
07:57PM 48.3848 -27.0924 80° East  Level FlightAware Approximate
07:58PM 48.4093 -26.8843 80° East  Level FlightAware Approximate
07:59PM 48.4335 -26.6760 80° East  Level FlightAware Approximate
08:00PM 48.4572 -26.4674 80° East  Level FlightAware Approximate
08:01PM 48.4806 -26.2587 80° East  Level FlightAware Approximate
08:02PM 48.5037 -26.0498 80° East  Level FlightAware Approximate
08:03PM 48.5263 -25.8407 81° East  Level FlightAware Approximate
08:04PM 48.5485 -25.6315 81° East  Level FlightAware Approximate
08:05PM 48.5704 -25.4220 81° East  Level FlightAware Approximate
08:06PM 48.5919 -25.2124 81° East  Level FlightAware Approximate
08:07PM 48.6130 -25.0026 81° East  Level FlightAware Approximate
08:08PM 48.6338 -24.7926 81° East  Level FlightAware Approximate
08:09PM 48.6541 -24.5824 82° East  Level FlightAware Approximate
08:10PM 48.6741 -24.3721 82° East  Level FlightAware Approximate
08:11PM 48.6937 -24.1616 82° East  Level FlightAware Approximate
08:12PM 48.7129 -23.9510 82° East  Level FlightAware Approximate
08:13PM 48.7317 -23.7401 82° East  Level FlightAware Approximate
08:14PM 48.7502 -23.5292 82° East  Level FlightAware Approximate
08:15PM 48.7682 -23.3181 83° East  Level FlightAware Approximate
08:16PM 48.7859 -23.1068 83° East  Level FlightAware Approximate
08:17PM 48.8032 -22.8954 83° East  Level FlightAware Approximate
08:18PM 48.8201 -22.6838 83° East  Level FlightAware Approximate
08:19PM 48.8366 -22.4721 83° East  Level FlightAware Approximate
08:20PM 48.8527 -22.2603 83° East  Level FlightAware Approximate
08:21PM 48.8684 -22.0483 83° East  Level FlightAware Approximate
08:22PM 48.8838 -21.8362 84° East  Level FlightAware Approximate
08:23PM 48.8987 -21.6239 84° East  Level FlightAware Approximate
08:24PM 48.9133 -21.4116 84° East  Level FlightAware Approximate
08:25PM 48.9275 -21.1991 84° East  Level FlightAware Approximate
08:26PM 48.9412 -20.9865 84° East  Level FlightAware Approximate
08:27PM 48.9546 -20.7738 84° East  Level FlightAware Approximate
08:28PM 48.9676 -20.5609 85° East  Level FlightAware Approximate
08:29PM 48.9802 -20.3480 85° East  Level FlightAware Approximate
08:30PM 48.9925 -20.1349 85° East  Level FlightAware Approximate
08:31PM 49.0105 -19.9231 78° East  Level FlightAware Approximate
08:32PM 49.0387 -19.7135 78° East  Level FlightAware Approximate
08:33PM 49.0666 -19.5036 78° East  Level FlightAware Approximate
08:34PM 49.0940 -19.2935 79° East  Level FlightAware Approximate
08:35PM 49.1211 -19.0831 79° East  Level FlightAware Approximate
08:36PM 49.1479 -18.8725 79° East  Level FlightAware Approximate
08:37PM 49.1742 -18.6618 79° East  Level FlightAware Approximate
08:38PM 49.2001 -18.4507 79° East  Level FlightAware Approximate
08:39PM 49.2257 -18.2395 79° East  Level FlightAware Approximate
08:40PM 49.2509 -18.0280 80° East  Level FlightAware Approximate
08:41PM 49.2757 -17.8163 80° East  Level FlightAware Approximate
08:42PM 49.3001 -17.6044 80° East  Level FlightAware Approximate
08:43PM 49.3241 -17.3923 80° East  Level FlightAware Approximate
08:44PM 49.3477 -17.1800 80° East  Level FlightAware Approximate
08:45PM 49.3709 -16.9675 80° East  Level FlightAware Approximate
08:46PM 49.3938 -16.7548 81° East  Level FlightAware Approximate
08:47PM 49.4162 -16.5419 81° East  Level FlightAware Approximate
08:48PM 49.4383 -16.3288 81° East  Level FlightAware Approximate
08:49PM 49.4600 -16.1156 81° East  Level FlightAware Approximate
08:50PM 49.4813 -15.9021 81° East  Level FlightAware Approximate
08:51PM 49.5022 -15.6884 81° East  Level FlightAware Approximate
08:52PM 49.5226 -15.4746 82° East  Level FlightAware Approximate
08:53PM 49.5427 -15.2606 82° East  Level FlightAware Approximate
08:54PM 49.5625 -15.0464 82° East  Level FlightAware Approximate
08:55PM 49.5815 -14.8320 82° East  Level FlightAware Approximate
08:56PM 49.6000 -14.6174 82° East  Level FlightAware Approximate
08:57PM 49.6182 -14.4026 82° East  Level FlightAware Approximate
08:58PM 49.6360 -14.1877 83° East  Level FlightAware Approximate
08:59PM 49.6533 -13.9726 83° East  Level FlightAware Approximate
09:00PM 49.6703 -13.7574 83° East  Level FlightAware Approximate
09:01PM 49.6869 -13.5421 83° East  Level FlightAware Approximate
09:02PM 49.7030 -13.3265 83° East  Level FlightAware Approximate
09:03PM 49.7188 -13.1109 83° East  Level FlightAware Approximate
09:04PM 49.7342 -12.8951 84° East  Level FlightAware Approximate
09:05PM 49.7491 -12.6791 84° East  Level FlightAware Approximate
09:06PM 49.7650 -12.4633 83° East  Level FlightAware Approximate
09:07PM 49.7805 -12.2473 84° East  Level FlightAware Approximate
09:08PM 49.7956 -12.0312 84° East  Level FlightAware Approximate
09:09PM 49.8103 -11.8149 84° East  Level FlightAware Approximate
09:09PM 49.8780 -9.7140 84° East 477 549 39,000  Level FlightAware
09:09PM 49.8910 -9.6150 78° East 478 550 39,000  Level FlightAware
09:10PM 49.8246 -11.5986 84° East  Level FlightAware Approximate
09:10PM 49.9160 -9.4200 79° East 480 552 39,000  Level FlightAware
09:11PM 49.9300 -9.3130 78° East 479 551 39,000  Level FlightAware
09:12PM 49.9510 -9.1500 79° East 479 551 39,000  Level FlightAware
09:12PM 49.9721 -8.9758 79° East 460 529 39,000  Level FlightAware UK
09:13PM 49.9680 -9.0090 79° East 479 551 39,000  Level FlightAware
09:13PM 49.9847 -8.8756 79° East 458 527 39,000  Level FlightAware UK
09:13PM 49.9980 -8.7759 78° East 454 522 39,000  Level FlightAware UK
09:14PM 50.0129 -8.6768 77° East 456 525 39,000  Level FlightAware UK
09:14PM 50.0279 -8.5778 77° East 460 529 39,000  Level FlightAware UK
09:15PM 50.0426 -8.4789 77° East 458 527 39,000  Level FlightAware UK
09:15PM 50.0450 -8.4650 77° East 39,000  Level FlightAware
09:15PM 50.0569 -8.3802 77° East 456 525 39,000  Level FlightAware UK
09:16PM 50.0711 -8.2816 77° East 452 520 39,000  Level FlightAware UK
09:16PM 50.0680 -8.3070 77° East 467 537 39,000  Level FlightAware
09:16PM 50.0853 -8.1835 77° East 454 522 39,000  Level FlightAware UK
09:17PM 50.0920 -8.1430 77° East 469 540 39,000  Level FlightAware
09:17PM 50.0994 -8.0845 77° East 454 522 39,000  Level FlightAware UK
09:17PM 50.1100 -8.0120 78° East 468 539 39,000  Level FlightAware
09:17PM 50.1133 -7.9858 78° East 452 520 39,000  Level FlightAware UK
09:18PM 50.1271 -7.8870 78° East 454 522 39,000  Level FlightAware UK
09:18PM 50.1360 -7.8280 78° East 469 540 39,000  Level FlightAware
09:19PM 50.1547 -7.6892 78° East 450 518 39,000  Level FlightAware UK
09:19PM 50.1570 -7.6780 78° East 470 541 39,000  Level FlightAware
09:19PM 50.1683 -7.5901 78° East 454 522 39,000  Level FlightAware UK
09:20PM 50.1740 -7.5480 78° East 470 541 39,000  Level FlightAware
09:20PM 50.1920 -7.4150 78° East 470 541 39,000  Level FlightAware
09:20PM 50.1950 -7.3914 78° East 456 525 39,000  Level FlightAware UK
09:21PM 50.2084 -7.2922 78° East 456 525 39,000  Level FlightAware UK
09:21PM 50.2120 -7.2700 78° East 467 537 39,000  Level FlightAware
09:21PM 50.2217 -7.1932 78° East 454 522 39,000  Level FlightAware UK
09:22PM 50.2300 -7.1370 78° East 465 535 39,000  Level FlightAware
09:22PM 50.2349 -7.0944 78° East 454 522 39,000  Level FlightAware UK
09:22PM 50.2478 -6.9960 78° East 454 522 39,000  Level FlightAware UK
09:23PM 50.2490 -6.9890 78° East 462 532 39,000  Level FlightAware
09:23PM 50.2606 -6.8972 78° East 454 522 39,000  Level FlightAware UK
09:23PM 50.2660 -6.8560 78° East 462 532 39,000  Level FlightAware
09:24PM 50.2850 -6.7090 78° East 462 532 39,000  Level FlightAware
09:24PM 50.2859 -6.7010 78° East 452 520 39,000  Level FlightAware UK
09:24PM 50.2987 -6.6030 78° East 452 520 39,000  Level FlightAware UK
09:25PM 50.3020 -6.5790 78° East 462 532 39,000  Level FlightAware
09:25PM 50.3113 -6.5049 78° East 450 518 39,000  Level FlightAware UK
09:25PM 50.3190 -6.4480 78° East 463 533 39,000  Level FlightAware
09:26PM 50.3360 -6.3075 78° East 454 522 39,000  Level FlightAware UK
09:26PM 50.3370 -6.2980 78° East 465 535 39,000  Level FlightAware
09:26PM 50.3483 -6.2076 78° East 456 525 39,000  Level FlightAware UK
09:27PM 50.3560 -6.1470 79° East 463 533 39,000  Level FlightAware
09:27PM 50.3608 -6.1084 79° East 456 525 39,000  Level FlightAware UK
09:28PM 50.3754 -5.9903 79° East 458 527 39,000  Level FlightAware UK
09:28PM 50.3760 -5.9870 79° East 462 532 39,000  Level FlightAware
09:28PM 50.3876 -5.8908 79° East 458 527 39,000  Level FlightAware UK
09:28PM 50.3940 -5.8390 79° East 462 532 39,000  Level FlightAware
09:29PM 50.4100 -5.7080 79° East 460 529 39,000  Level FlightAware
09:29PM 50.4112 -5.6943 79° East 456 525 39,000  Level FlightAware UK
09:30PM 50.4229 -5.5964 79° East 456 525 39,000  Level FlightAware UK
09:30PM 50.4250 -5.5760 79° East 458 527 39,000  Level FlightAware
09:30PM 50.4345 -5.4987 79° East 454 522 39,000  Level FlightAware UK
09:30PM 50.4410 -5.4470 80° East 457 526 39,000  Level FlightAware
09:31PM 50.4459 -5.4010 80° East 456 525 39,000  Level FlightAware UK
09:31PM 50.4572 -5.3036 80° East 456 525 39,000  Level FlightAware UK
09:31PM 50.4580 -5.2990 80° East 456 525 39,000  Level FlightAware
09:32PM 50.4684 -5.2062 80° East 454 522 39,000  Level FlightAware UK
09:32PM 50.4730 -5.1670 80° East 455 524 39,000  Level FlightAware
09:32PM 50.4795 -5.1090 80° East 454 522 39,000  Level FlightAware UK
09:32PM 50.4870 -5.0420 80° East 455 524 39,000  Level FlightAware
09:33PM 50.4906 -5.0120 80° East 454 522 39,000  Level FlightAware UK
09:33PM 50.5015 -4.9149 80° East 454 522 39,000  Level FlightAware UK
09:33PM 50.5035 -4.8985 80° East 455 524 39,000  Level FlightAware ADS-B
09:34PM 50.5124 -4.8165 80° East 454 522 39,000  Level FlightAware UK
09:34PM 50.5142 -4.7997 80° East 455 524 39,000  Level FlightAware ADS-B
09:34PM 50.5251 -4.7005 80° East 452 520 39,000  Level FlightAware UK
09:34PM 50.5251 -4.7009 80° East 454 522 39,000  Level FlightAware ADS-B
09:35PM 50.5357 -4.6033 80° East 452 520 39,000  Level FlightAware UK
09:35PM 50.5359 -4.6024 80° East 455 524 39,000  Level FlightAware ADS-B
09:35PM 50.5465 -4.5060 80° East 456 525 39,000  Level FlightAware UK
09:35PM 50.5465 -4.5049 80° East 455 524 39,000  Level FlightAware ADS-B
09:36PM 50.5569 -4.4085 80° East 456 525 39,000  Level FlightAware UK
09:36PM 50.5573 -4.4054 80° East 455 524 39,000  Level FlightAware ADS-B
09:36PM 50.5674 -4.3101 80° East 458 527 39,000  Level FlightAware UK
09:36PM 50.5722 -4.2653 80° East 454 522 39,000  Level FlightAware ADS-B
09:37PM 50.5777 -4.2126 80° East 458 527 39,000  Level FlightAware UK
09:37PM 50.5842 -4.1526 80° East 453 521 39,000  Level FlightAware ADS-B
09:38PM 50.6002 -4.0000 80° East 458 527 39,000  Level FlightAware UK
09:38PM 50.6036 -3.9661 80° East 451 519 39,000  Level FlightAware ADS-B
09:38PM 50.6102 -3.9021 80° East 454 522 39,000  Level FlightAware UK
09:38PM 50.6139 -3.8668 80° East 449 517 39,000  Level FlightAware ADS-B
09:39PM 50.6202 -3.8051 80° East 454 522 39,000  Level FlightAware UK
09:39PM 50.6300 -3.7088 81° East 452 520 39,000  Level FlightAware UK
09:39PM 50.6299 -3.7106 81° East 449 517 39,000  Level FlightAware ADS-B
09:40PM 50.6397 -3.6124 81° East 452 520 39,000  Level FlightAware UK
09:40PM 50.6405 -3.6040 81° East 448 516 39,000  Level FlightAware ADS-B
09:40PM 50.6494 -3.5159 81° East 450 518 39,000  Level FlightAware UK
09:40PM 50.6504 -3.5045 81° East 449 517 39,000  Level FlightAware ADS-B
09:41PM 50.6608 -3.4005 81° East 454 522 39,000  Level FlightAware UK
09:41PM 50.6610 -3.3920 81° East 450 518 39,000  Level FlightAware
09:41PM 50.6686 -3.3184 81° East 451 519 39,000  Level FlightAware ADS-B
09:42PM 50.6789 -3.2151 81° East 450 518 39,000  Level FlightAware ADS-B
09:42PM 50.6881 -3.1181 81° East 449 517 39,000  Level FlightAware ADS-B
09:43PM 50.6986 -3.0088 81° East 448 516 39,000  Level FlightAware ADS-B
09:43PM 50.7076 -2.9123 82° East 448 516 39,000  Level FlightAware ADS-B
09:44PM 50.7177 -2.8069 81° East 448 516 39,000  Level FlightAware ADS-B
09:44PM 50.7267 -2.7096 82° East 449 517 39,000  Level FlightAware ADS-B
09:45PM 50.7357 -2.6121 82° East 450 518 39,000  Level FlightAware ADS-B
09:45PM 50.7446 -2.5130 82° East 450 518 39,000  Level FlightAware ADS-B
09:46PM 50.7506 -2.4485 82° East 454 522 39,000  Level FlightAware UK
09:46PM 50.7535 -2.4142 82° East 451 519 39,000  Level FlightAware ADS-B
09:46PM 50.7594 -2.3496 82° East 456 525 39,000  Level FlightAware UK
09:46PM 50.7621 -2.3161 82° East 452 520 39,000  Level FlightAware ADS-B
09:47PM 50.7680 -2.2510 82° East 456 525 39,000  Level FlightAware UK
09:47PM 50.7709 -2.2173 82° East 452 520 39,000  Level FlightAware ADS-B
09:47PM 50.7767 -2.1524 82° East 456 525 39,000  Level FlightAware UK
09:47PM 50.7795 -2.1184 82° East 452 520 39,000  Level FlightAware ADS-B
09:48PM 50.7853 -2.0537 82° East 456 525 39,000  Level FlightAware UK
09:48PM 50.7882 -2.0203 82° East 451 519 39,000  Level FlightAware ADS-B
09:48PM 50.7954 -1.9376 82° East 456 525 39,000  Level FlightAware UK
09:49PM 50.7968 -1.9204 82° East 451 519 39,000  Level FlightAware ADS-B
09:49PM 50.8039 -1.8386 82° East 456 525 39,000  Level FlightAware UK
09:49PM 50.8052 -1.8195 82° East 452 520 39,000  Level FlightAware ADS-B
09:49PM 50.8136 -1.7212 82° East 456 525 39,000  Level FlightAware UK
09:50PM 50.8135 -1.7205 82° East 452 520 39,000  Level FlightAware ADS-B
09:50PM 50.8216 -1.6220 83° East 452 520 39,000  Level FlightAware ADS-B
09:51PM 50.8298 -1.5230 82° East 453 521 39,000  Level FlightAware ADS-B
09:51PM 50.8379 -1.4232 83° East 453 521 39,000  Level FlightAware ADS-B
09:52PM 50.8459 -1.3237 83° East 454 522 39,000  Level FlightAware ADS-B
09:52PM 50.8538 -1.2239 83° East 453 521 39,000  Level FlightAware ADS-B
09:53PM 50.8617 -1.1243 83° East 453 521 39,000  Level FlightAware ADS-B
09:53PM 50.8673 -1.0526 83° East 458 527 39,000  Level FlightAware UK
09:53PM 50.8693 -1.0249 83° East 452 520 39,000  Level FlightAware ADS-B
09:53PM 50.8749 -0.9542 83° East 456 525 39,000  Level FlightAware UK
09:53PM 50.8753 -0.9489 83° East 452 520 39,000  Level FlightAware ADS-B
09:54PM 50.8769 -0.9267 83° East 452 520 39,000  Level FlightAware ADS-B
09:54PM 50.8824 -0.8560 83° East 456 525 39,000  Level FlightAware UK
09:54PM 50.8845 -0.8281 83° East 451 519 39,000  Level FlightAware ADS-B
09:54PM 50.8898 -0.7566 83° East 454 522 39,000  Level FlightAware UK
09:55PM 50.8919 -0.7301 83° East 451 519 39,000  Level FlightAware ADS-B
09:55PM 50.8921 -0.7265 85° East 451 519 39,000  Level FlightAware ADS-B
09:55PM 50.8971 -0.6587 85° East 454 522 39,000  Level FlightAware UK
09:55PM 50.8992 -0.6307 85° East 451 519 39,000  Level FlightAware ADS-B
09:55PM 50.8994 -0.6274 85° East 451 519 39,000  Level FlightAware ADS-B
09:56PM 50.9059 -0.5418 85° East 456 525 39,000  Level FlightAware UK
09:56PM 50.9064 -0.5311 85° East 452 520 39,000  Level FlightAware ADS-B
09:56PM 50.9078 -0.5138 83° East 452 520 39,000  Level FlightAware ADS-B
09:56PM 50.9137 -0.4320 83° East 452 520 39,000  Level FlightAware ADS-B
09:56PM 50.9158 -0.4000 84° East 452 520 39,000  Level FlightAware ADS-B
09:57PM 50.9208 -0.3333 83° East 452 520 39,000  Level FlightAware ADS-B
09:57PM 50.9241 -0.2852 84° East 451 519 39,000  Level FlightAware ADS-B
09:57PM 50.9277 -0.2344 84° East 451 519 39,000  Level FlightAware ADS-B
09:58PM 50.9347 -0.1353 84° East 452 520 39,000  Level FlightAware ADS-B
09:58PM 50.9378 -0.0896 84° East 451 519 39,000  Level FlightAware ADS-B
09:58PM 50.9414 -0.0361 84° East 453 521 39,000  Level FlightAware ADS-B
09:58PM 50.9448 0.0092 83° East 453 521 39,000  Level FlightAware ADS-B
09:59PM 50.9483 0.0632 84° East 454 522 39,000  Level FlightAware ADS-B
09:59PM 50.9516 0.1108 84° East 454 522 39,000  Level FlightAware ADS-B
09:59PM 50.9551 0.1632 84° East 454 522 39,000  Level FlightAware ADS-B
09:59PM 50.9584 0.2118 84° East 454 522 39,000  Level FlightAware ADS-B
10:00PM 50.9616 0.2632 84° East 456 525 39,000  Level FlightAware ADS-B
10:00PM 50.9648 0.3120 84° East 455 524 39,000  Level FlightAware ADS-B
10:00PM 50.9681 0.3629 84° East 456 525 39,000  Level FlightAware ADS-B
10:01PM 50.9748 0.4626 84° East 457 526 39,000  Level FlightAware ADS-B
10:01PM 50.9769 0.4992 85° East 457 526 39,000  Level FlightAware ADS-B
10:01PM 50.9812 0.5636 84° East 457 526 39,000  Level FlightAware ADS-B
10:01PM 50.9833 0.6000 85° East 457 526 39,000  Level FlightAware ADS-B
10:02PM 50.9874 0.6635 84° East 457 526 39,000  Level FlightAware ADS-B
10:02PM 50.9898 0.7005 84° East 457 526 39,000  Level FlightAware ADS-B
10:02PM 50.9937 0.7658 85° East 457 526 39,000  Level FlightAware ADS-B
10:02PM 50.9960 0.8006 84° East 456 525 39,000  Level FlightAware ADS-B
10:03PM 50.9998 0.8666 85° East 456 525 39,000  Level FlightAware ADS-B
10:03PM 51.0020 0.9005 84° East 456 525 39,000  Level FlightAware ADS-B
10:03PM 51.0059 0.9672 85° East 455 524 39,000  Level FlightAware ADS-B
10:03PM 51.0080 1.0003 84° East 455 524 39,000  Level FlightAware ADS-B
10:04PM 51.0118 1.0675 85° East 455 524 39,000  Level FlightAware ADS-B
10:04PM 51.0138 1.1021 85° East 455 524 39,000  Level FlightAware ADS-B
10:04PM 51.0177 1.1639 85° East 458 527 39,000  Level FlightAware UK
10:04PM 51.0177 1.1672 85° East 454 522 39,000  Level FlightAware ADS-B
10:04PM 51.0198 1.2038 85° East 454 522 39,000  Level FlightAware ADS-B
10:05PM 51.0236 1.2638 85° East 456 525 39,000  Level FlightAware UK
10:05PM 51.0235 1.2671 85° East 454 522 39,000  Level FlightAware ADS-B
10:05PM 51.0256 1.3040 85° East 454 522 39,000  Level FlightAware ADS-B
10:05PM 51.0292 1.3636 85° East 456 525 39,000  Level FlightAware UK
10:05PM 51.0291 1.3674 85° East 453 521 39,000  Level FlightAware ADS-B
10:05PM 51.0312 1.4034 85° East 453 521 39,000  Level FlightAware ADS-B
10:06PM 51.0330 1.4370 85° East 453 521 39,000  Level FlightAware ADS-B
10:06PM 51.0332 1.4664 89° East 454 522 39,000  Level FlightAware ADS-B
10:06PM 51.0328 1.4800 93° East 455 524 39,000  Level FlightAware ADS-B
10:06PM 51.0310 1.5116 95° East 455 524 39,000  Level FlightAware ADS-B
10:06PM 51.0281 1.5392 99° East 456 525 39,000  Level FlightAware ADS-B
10:06PM 51.0198 1.6122 100° East 456 525 39,000  Level FlightAware ADS-B
10:07PM 51.0164 1.6425 100° East 456 525 39,000  Level FlightAware ADS-B
10:07PM 51.0079 1.7178 100° East 456 525 39,000  Level FlightAware ADS-B
10:07PM 51.0049 1.7424 101° East 456 525 39,000  Level FlightAware ADS-B
10:07PM 50.9962 1.8205 100° East 456 525 39,000  Level FlightAware ADS-B
10:08PM 50.9937 1.8421 100° East 455 524 39,000  Level FlightAware ADS-B
10:08PM 50.9847 1.9205 100° East 455 524 39,000  Level FlightAware ADS-B
10:08PM 50.9820 1.9422 101° East 455 524 39,000  Level FlightAware ADS-B
10:08PM 50.9729 2.0196 101° East 454 522 39,000  Level FlightAware ADS-B
10:09PM 50.9697 2.0451 101° East 454 522 39,000  Level FlightAware ADS-B
10:09PM 50.9602 2.1181 102° East 454 522 39,000  Level FlightAware ADS-B
10:09PM 50.9569 2.1442 101° East 453 521 39,000  Level FlightAware ADS-B
10:09PM 50.9476 2.2168 101° East 453 521 39,000  Level FlightAware ADS-B
10:10PM 50.9446 2.2415 101° East 453 521 39,000  Level FlightAware ADS-B
10:10PM 50.9331 2.3300 102° East 453 521 39,000  Level FlightAware ADS-B
10:10PM 50.9319 2.3407 100° East 453 521 39,000  Level FlightAware ADS-B
10:11PM 50.9193 2.4380 102° East 453 521 39,000  Level FlightAware ADS-B
10:11PM 50.9190 2.4409 99° East 453 521 39,000  Level FlightAware ADS-B
10:11PM 50.9066 2.5352 102° East 454 522 39,000  Level FlightAware ADS-B
10:11PM 50.9062 2.5395 99° East 454 522 39,000  Level FlightAware ADS-B
10:12PM 50.8932 2.6382 102° East 454 522 39,000  Level FlightAware ADS-B
10:12PM 50.8932 2.6395 90° East 454 522 39,000  Level FlightAware ADS-B
10:12PM 50.8856 2.6969 90° East 458 527 39,000  Level FlightAware UK
10:12PM 50.8801 2.7386 90° East 455 524 39,000  Level FlightAware ADS-B
10:13PM 50.8704 2.8126 90° East 458 527 39,000  Level FlightAware UK
10:13PM 50.8671 2.8368 90° East 455 524 39,000  Level FlightAware ADS-B
10:13PM 50.8576 2.9108 90° East 460 529 39,000  Level FlightAware UK
10:13PM 50.8531 2.9415 90° East 454 522 39,000  Level FlightAware ADS-B
10:13PM 50.8498 2.9657 102° East 454 522 39,000  Level FlightAware ADS-B
10:14PM 50.8401 3.0385 102° East 453 521 39,000  Level FlightAware ADS-B
10:14PM 50.8313 3.1045 102° East 456 525 39,000  Level FlightAware UK
10:14PM 50.8266 3.1388 102° East 453 521 39,000  Level FlightAware ADS-B
10:15PM 50.8181 3.2018 102° East 456 525 39,000  Level FlightAware UK
10:15PM 50.8134 3.2358 102° East 453 521 39,000  Level FlightAware ADS-B
10:15PM 50.8023 3.3172 102° East 456 525 39,000  Level FlightAware UK
10:15PM 50.7997 3.3351 102° East 454 522 39,000  Level FlightAware ADS-B
10:16PM 50.7889 3.4149 102° East 456 525 39,000  Level FlightAware UK
10:16PM 50.7863 3.4325 102° East 455 524 39,000  Level FlightAware ADS-B
10:16PM 50.7753 3.5126 102° East 458 527 39,000  Level FlightAware UK
10:16PM 50.7726 3.5312 102° East 456 525 39,000  Level FlightAware ADS-B
10:17PM 50.7614 3.6104 102° East 458 527 39,000  Level FlightAware UK
10:17PM 50.7586 3.6314 102° East 457 526 39,000  Level FlightAware ADS-B
10:17PM 50.7451 3.7273 102° East 460 529 39,000  Level FlightAware UK
10:17PM 50.7445 3.7309 102° East 456 525 39,000  Level FlightAware ADS-B
10:18PM 50.7306 3.8299 102° East 455 524 39,000  Level FlightAware ADS-B
10:18PM 50.7163 3.9296 103° East 454 522 39,000  Level FlightAware ADS-B
10:19PM 50.7025 4.0258 103° East 454 522 39,000  Level FlightAware ADS-B
10:19PM 50.6884 4.1234 103° East 452 520 39,000  Level FlightAware ADS-B
10:20PM 50.6740 4.2221 103° East 452 520 39,000  Level FlightAware ADS-B
10:20PM 50.6599 4.3185 103° East 453 521 39,000  Level FlightAware ADS-B
10:21PM 50.6456 4.4159 103° East 453 521 39,000  Level FlightAware ADS-B
10:21PM 50.6313 4.5119 103° East 452 520 39,000  Level FlightAware ADS-B
10:22PM 50.6165 4.6115 103° East 452 520 39,000  Level FlightAware ADS-B
10:22PM 50.6016 4.7109 103° East 453 521 39,000  Level FlightAware ADS-B
10:23PM 50.5860 4.8143 103° East 452 520 39,000  Level FlightAware ADS-B
10:23PM 50.5713 4.9110 103° East 453 521 39,000 -240 Level FlightAware ADS-B
10:24PM 50.5567 5.0068 103° East 453 521 38,800 -1,320 Descending FlightAware ADS-B
10:24PM 50.5419 5.1029 104° East 455 524 37,700 -2,220 Descending FlightAware ADS-B
10:25PM 50.5269 5.1996 104° East 453 521 36,600 -1,920 Descending FlightAware ADS-B
10:25PM 50.5118 5.2962 104° East 445 512 35,800 -1,680 Descending FlightAware ADS-B
10:26PM 50.4973 5.3894 104° East 433 498 34,900 -2,100 Descending FlightAware ADS-B
10:26PM 50.4828 5.4815 104° East 434 499 33,700 -2,760 Descending FlightAware ADS-B
10:27PM 50.4680 5.5750 104° East 444 511 32,100 -2,340 Descending FlightAware ADS-B
10:27PM 50.4521 5.6749 104° East 432 497 31,300 -1,560 Descending FlightAware ADS-B
10:28PM 50.4337 5.7892 104° East 422 486 30,300 -1,740 Descending FlightAware ADS-B
10:29PM 50.4174 5.8906 104° East 414 476 29,200 -1,860 Descending FlightAware ADS-B
10:29PM 50.4020 5.9820 105° East 406 467 28,200 -1,440 Descending FlightAware
10:30PM 50.3830 6.1010 104° East 388 447 27,400 -900 Descending FlightAware
10:31PM 50.3650 6.2090 105° East 361 415 27,000 -540 Descending FlightAware
10:31PM 50.3500 6.2980 105° East 342 394 26,700 -480 Descending FlightAware
10:32PM 50.3380 6.3750 104° East 321 369 26,400 -900 Descending FlightAware
10:33PM 50.3200 6.4810 105° East 312 359 25,500 -1,380 Descending FlightAware
10:33PM 50.3030 6.5810 105° East 308 354 24,500 -1,380 Descending FlightAware
10:34PM 50.2880 6.6710 105° East 304 350 23,600 -1,260 Descending FlightAware
10:35PM 50.2730 6.7630 104° East 301 346 22,800 -1,080 Descending FlightAware
10:36PM 50.2510 6.8880 105° East 295 339 21,700 -960 Descending FlightAware
10:37PM 50.2370 6.9670 105° East 288 331 21,100 -1,260 Descending FlightAware
10:38PM 50.2160 7.0930 105° East 290 334 19,700 -1,260 Descending FlightAware
10:38PM 50.2010 7.1770 106° East 283 326 19,000 -960 Descending FlightAware
10:39PM 50.1880 7.2540 105° East 281 323 18,400 -960 Descending FlightAware
10:40PM 50.1730 7.3390 105° East 274 315 17,700 -1,140 Descending FlightAware
10:40PM 50.1600 7.4130 105° East 275 316 16,900 -1,140 Descending FlightAware
10:41PM 50.1450 7.4990 105° East 272 313 16,100 -1,080 Descending FlightAware
10:42PM 50.1290 7.5850 106° East 267 307 15,300 -960 Descending FlightAware
10:43PM 50.1170 7.6540 105° East 262 302 14,800 -1,020 Descending FlightAware
10:43PM 50.1030 7.7290 106° East 259 298 14,000 -1,140 Descending FlightAware
10:44PM 50.0890 7.8010 107° East 261 300 13,300 -1,080 Descending FlightAware
10:45PM 50.1050 7.9670 81° East 247 284 11,800 -960 Descending FlightAware
10:46PM 50.1220 8.0380 69° East 239 275 11,300 -600 Descending FlightAware
10:47PM 50.1380 8.1030 69° East 235 270 11,000 -240 Descending FlightAware
10:47PM 50.1540 8.1680 69° East 239 275 11,000 -360 Level FlightAware
10:48PM 50.1530 8.2410 91° East 244 281 10,500 -780 Descending FlightAware
10:48PM 50.1440 8.2510 145° Southeast 247 284 10,300 -960 Descending FlightAware
10:49PM 50.1270 8.2570 167° South 249 287 10,100 -1,020 Descending FlightAware
10:49PM 50.1110 8.2480 200° South 248 285 9,800 -1,260 Descending FlightAware
10:49PM 50.1010 8.2300 229° Southwest 245 282 9,500 -960 Descending FlightAware
10:50PM 50.0870 8.1790 247° West 242 278 9,100 -600 Descending FlightAware
10:50PM 50.0770 8.1380 249° West 240 276 9,000 -120 Descending FlightAware
10:51PM 50.0650 8.0920 248° West 242 278 9,000  Level FlightAware
10:51PM 50.0520 8.0420 248° West 240 276 9,000  Level FlightAware
10:51PM 50.0480 8.0260 249° West 241 277 9,000  Level FlightAware
10:52PM 50.0370 7.9790 250° West 241 277 9,000  Level FlightAware
10:52PM 50.0300 7.9520 248° West 242 278 9,000  Level FlightAware
10:52PM 50.0200 7.9120 249° West 241 277 9,000 -180 Level FlightAware
10:53PM 50.0140 7.8890 248° West 240 276 8,900 -780 Descending FlightAware
10:53PM 50.0040 7.8480 249° West 241 277 8,500 -1,080 Descending FlightAware
10:53PM 49.9950 7.8250 239° Southwest 244 281 8,200 -900 Descending FlightAware
10:54PM 49.9750 7.8120 203° Southwest 241 277 7,900 -960 Descending FlightAware
10:54PM 49.9430 7.8400 151° Southeast 228 262 7,300 -1,020 Descending FlightAware
10:55PM 49.9360 7.8800 105° East 227 261 7,000 -900 Descending FlightAware
10:55PM 49.9290 7.9260 103° East 228 262 6,500 -840 Descending FlightAware
10:56PM 49.9220 7.9750 102° East 225 259 6,200 -600 Descending FlightAware
10:56PM 49.9210 7.9920 95° East 226 260 6,100 -480 Descending FlightAware
10:56PM 49.9260 8.0380 80° East 222 255 5,900 -540 Descending FlightAware
10:57PM 49.9360 8.0810 70° East 208 239 5,600 -600 Descending FlightAware
10:57PM 49.9400 8.0960 67° East 207 238 5,500 -480 Descending FlightAware
10:57PM 49.9500 8.1370 69° East 196 226 5,300 -420 Descending FlightAware
10:58PM 49.9550 8.1560 68° East 188 216 5,200 -540 Descending FlightAware
10:58PM 49.9640 8.1940 70° East 185 213 4,900 -900 Descending FlightAware
10:59PM 49.9730 8.2310 69° East 192 221 4,300 -1,200 Descending FlightAware
10:59PM 49.9810 8.2640 69° East 194 223 3,800 -1,200 Descending FlightAware
10:59PM 49.9860 8.2840 69° East 197 227 3,500 -780 Descending FlightAware
11:00PM 49.9930 8.3160 71° East 176 203 3,300 -900 Descending FlightAware
11:00PM 50.0020 8.3520 69° East 179 206 2,700 -1,200 Descending FlightAware
11:01PM 50.0070 8.3700 67° East 172 198 2,400 -1,200 Descending FlightAware
11:01PM 50.0110 8.3900 73° East 167 192 2,000 -1,080 Descending FlightAware
11:01PM 50.0180 8.4200 70° East 151 174 1,500 -900 Descending FlightAware
11:02PM 50.0260 8.4500 67° East 141 162 1,100 -780 Descending FlightAware
11:02PM 50.0320 8.4750 70° East 138 159 800 -360 Descending FlightAware
11:03PM 50.0370 8.4950 69° East 137 158 800  Level FlightAware
11:05PM 50.0264 8.5431 111° Southeast  Level Estimated